Time;durP1;ratioP1;P1;durP2;ratioP2;P2;SDS_P1;SDS_P2;PMS_P1;PMS_P2;Temp;Humidity;BMP_temperature;BMP_pressure;BME280_temperature;BME280_humidity;BME280_pressure;Samples;Min_cycle;Max_cycle;Signal;HPM_P1;HPM_P2
2021/11/20 16:58:19;;;;;;;0.88;0.50;;;19.60;53.50;;;;;;5342321;23;20047;-41
2021/11/20 17:00:45;;;;;;;2.38;0.50;;;19.70;53.50;;;;;;4985203;28;20034;-40
2021/11/20 17:03:12;;;;;;;3.20;0.77;;;19.70;53.70;;;;;;4987056;28;20089;-48
2021/11/20 17:05:38;;;;;;;1.20;0.50;;;19.60;53.80;;;;;;4985371;28;20027;-40
2021/11/20 17:08:05;;;;;;;0.77;0.60;;;19.60;53.80;;;;;;4975028;28;20277;-50
2021/11/20 17:10:31;;;;;;;1.90;0.50;;;19.60;53.90;;;;;;4983171;28;20027;-61
2021/11/20 17:12:57;;;;;;;0.77;0.63;;;19.70;54.10;;;;;;4984346;28;20038;-59
2021/11/20 17:18:21;;;;;;;2.17;0.60;;;19.60;54.30;;;;;;4955764;23;20060;-44
2021/11/20 17:20:47;;;;;;;0.98;0.60;;;19.60;54.40;;;;;;4940640;29;20339;-42
2021/11/20 17:23:13;;;;;;;0.82;0.50;;;19.70;54.10;;;;;;4934425;29;20066;-42
2021/11/20 17:25:39;;;;;;;0.85;0.57;;;19.70;53.80;;;;;;4944706;29;20036;-43
2021/11/20 17:28:05;;;;;;;0.65;0.47;;;19.70;53.80;;;;;;4946735;29;20031;-42
2021/11/20 17:30:32;;;;;;;1.23;0.70;;;19.70;53.90;;;;;;4935639;29;20031;-44
2021/11/20 17:32:58;;;;;;;1.35;0.60;;;19.70;53.90;;;;;;4927751;29;20036;-42
2021/11/20 17:35:24;;;;;;;1.25;0.50;;;19.70;54.60;;;;;;4927698;29;20040;-42
2021/11/20 17:37:51;;;;;;;1.77;0.65;;;19.70;54.10;;;;;;4927552;29;20028;-42
2021/11/20 17:40:17;;;;;;;0.73;0.60;;;19.70;54.10;;;;;;4928408;29;20032;-42
2021/11/20 17:42:43;;;;;;;1.03;0.40;;;19.70;54.20;;;;;;4946168;29;20163;-42
2021/11/20 17:45:10;;;;;;;0.40;0.30;;;19.70;54.10;;;;;;4937092;29;20376;-41
2021/11/20 17:47:36;;;;;;;1.67;0.55;;;19.70;54.20;;;;;;4945026;29;20099;-42
2021/11/20 17:50:04;;;;;;;2.55;0.60;;;19.70;54.20;;;;;;4946665;29;20115;-42
2021/11/20 17:52:30;;;;;;;0.95;0.40;;;19.70;54.20;;;;;;4948567;29;20094;-42
2021/11/20 17:54:56;;;;;;;0.45;0.30;;;19.70;54.30;;;;;;4947192;28;20090;-42
2021/11/20 17:57:22;;;;;;;1.17;0.50;;;19.70;54.30;;;;;;4951892;29;20109;-41
2021/11/20 17:59:49;;;;;;;0.47;0.40;;;19.70;54.20;;;;;;4966734;28;20087;-42
2021/11/20 18:02:16;;;;;;;4.03;0.60;;;19.70;53.90;;;;;;4952426;29;20035;-42
2021/11/20 18:04:43;;;;;;;1.13;0.60;;;19.80;54.00;;;;;;4964475;28;20444;-43
2021/11/20 18:07:09;;;;;;;1.00;0.50;;;19.80;54.00;;;;;;4963793;28;20032;-42
2021/11/20 18:09:35;;;;;;;0.45;0.38;;;19.80;54.20;;;;;;4964760;29;20027;-41
2021/11/20 18:12:01;;;;;;;0.65;0.40;;;19.80;54.30;;;;;;4966754;29;20035;-42
2021/11/20 18:14:28;;;;;;;1.20;0.57;;;19.80;54.30;;;;;;4961368;28;20452;-41
2021/11/20 18:16:54;;;;;;;0.93;0.55;;;19.80;54.40;;;;;;4957181;28;20632;-41
2021/11/20 18:19:27;;;;;;;2.25;0.50;;;19.80;54.50;;;;;;4917914;29;20055;-42
2021/11/20 18:21:55;;;;;;;0.47;0.40;;;19.80;54.50;;;;;;4954530;29;20083;-43
2021/11/20 18:24:22;;;;;;;1.67;0.60;;;19.80;54.60;;;;;;4952013;28;20039;-43
2021/11/20 18:26:48;;;;;;;0.70;0.57;;;19.80;54.60;;;;;;4958754;28;20035;-42
2021/11/20 18:29:14;;;;;;;1.85;0.65;;;19.80;54.70;;;;;;4943072;29;20039;-41
2021/11/20 18:31:41;;;;;;;1.77;0.40;;;19.80;54.70;;;;;;4946407;29;20027;-42
2021/11/20 18:34:07;;;;;;;0.85;0.47;;;19.80;54.70;;;;;;4945999;29;20774;-41
2021/11/20 18:36:33;;;;;;;0.77;0.40;;;19.80;54.70;;;;;;4946323;29;20055;-44
2021/11/20 18:38:59;;;;;;;1.42;0.32;;;19.80;54.80;;;;;;4946386;29;20055;-42
2021/11/20 18:41:25;;;;;;;0.65;0.50;;;19.80;54.80;;;;;;4945997;29;20095;-42
2021/11/20 18:43:51;;;;;;;1.17;0.68;;;19.70;54.70;;;;;;4946371;29;20052;-42
2021/11/20 18:46:18;;;;;;;3.42;0.60;;;19.80;54.80;;;;;;4946422;29;20617;-41
2021/11/20 18:48:44;;;;;;;1.33;0.40;;;19.70;54.70;;;;;;4945427;29;20217;-43
2021/11/20 18:51:10;;;;;;;1.30;0.65;;;19.70;54.70;;;;;;4945854;29;20031;-42
2021/11/20 18:53:37;;;;;;;3.95;0.55;;;19.80;54.80;;;;;;4945339;29;20031;-44
2021/11/20 18:56:03;;;;;;;4.68;0.77;;;19.70;54.70;;;;;;4944439;29;20028;-43
2021/11/20 18:58:29;;;;;;;0.68;0.40;;;19.80;54.80;;;;;;4947434;29;20067;-42
2021/11/20 19:00:56;;;;;;;0.70;0.60;;;19.80;54.80;;;;;;4931301;29;20024;-42
2021/11/20 19:03:22;;;;;;;1.15;0.45;;;19.80;54.80;;;;;;4944898;29;20035;-41
2021/11/20 19:05:48;;;;;;;0.70;0.47;;;19.80;54.90;;;;;;4951182;28;20331;-43
2021/11/20 19:08:15;;;;;;;0.70;0.60;;;19.70;54.80;;;;;;4937426;29;20039;-43
2021/11/20 19:10:41;;;;;;;2.85;0.75;;;19.70;54.90;;;;;;4944813;29;20030;-42
2021/11/20 19:13:08;;;;;;;0.60;0.40;;;19.80;54.90;;;;;;4953746;29;20030;-42
2021/11/20 19:15:34;;;;;;;0.70;0.50;;;19.70;54.80;;;;;;4949483;29;20047;-42
2021/11/20 19:18:00;;;;;;;1.37;0.70;;;19.70;54.90;;;;;;4945123;29;20524;-42
2021/11/20 19:20:26;;;;;;;2.28;0.90;;;19.70;54.80;;;;;;4945297;29;20047;-43
2021/11/20 19:22:53;;;;;;;0.95;0.65;;;19.70;54.80;;;;;;4941563;29;20024;-42
2021/11/20 19:25:19;;;;;;;0.80;0.70;;;19.70;54.60;;;;;;4949479;29;20139;-42
2021/11/20 19:27:45;;;;;;;1.98;0.75;;;19.80;54.60;;;;;;4946804;29;20476;-43
2021/11/20 19:30:13;;;;;;;2.33;0.80;;;19.70;54.50;;;;;;4945411;29;20032;-42
2021/11/20 19:32:39;;;;;;;1.88;0.80;;;19.70;54.50;;;;;;4945602;29;20050;-42
2021/11/20 19:35:07;;;;;;;1.98;0.68;;;19.80;54.60;;;;;;4945266;29;20183;-43
2021/11/20 19:37:33;;;;;;;1.20;0.60;;;19.80;54.60;;;;;;4942290;29;20052;-43
2021/11/20 19:39:59;;;;;;;2.70;0.77;;;19.70;54.50;;;;;;4942916;29;20032;-42
2021/11/20 19:42:26;;;;;;;1.33;0.65;;;19.70;54.60;;;;;;4936238;29;20119;-43
2021/11/20 19:44:52;;;;;;;2.03;0.67;;;19.70;54.60;;;;;;4929571;29;20051;-42
2021/11/20 19:47:18;;;;;;;1.88;0.88;;;19.70;54.60;;;;;;4945352;29;20027;-42
2021/11/20 19:49:44;;;;;;;1.02;0.55;;;19.70;54.60;;;;;;4927694;29;20023;-42
2021/11/20 19:52:10;;;;;;;1.42;0.70;;;19.80;54.70;;;;;;4933953;29;20036;-42
2021/11/20 19:54:36;;;;;;;1.67;0.57;;;19.70;54.50;;;;;;4937674;29;20043;-41
2021/11/20 19:57:02;;;;;;;0.85;0.50;;;19.70;54.40;;;;;;4932373;29;20031;-41
2021/11/20 19:59:29;;;;;;;0.85;0.68;;;19.70;54.50;;;;;;4929992;29;20114;-41
2021/11/20 20:01:55;;;;;;;1.02;0.52;;;19.80;54.00;;;;;;4944986;29;20060;-42
2021/11/20 20:04:21;;;;;;;2.63;0.60;;;19.90;54.20;;;;;;4926112;29;20028;-42
2021/11/20 20:06:47;;;;;;;1.10;0.68;;;20.00;54.20;;;;;;4926334;29;20020;-43
2021/11/20 20:09:13;;;;;;;0.90;0.40;;;20.10;54.30;;;;;;4943730;29;20055;-42
2021/11/20 20:11:40;;;;;;;1.88;0.50;;;20.20;54.80;;;;;;4945382;28;20063;-42
2021/11/20 20:14:08;;;;;;;1.88;0.60;;;20.20;54.30;;;;;;4940827;29;20047;-42
2021/11/20 20:16:35;;;;;;;2.05;1.10;;;20.20;54.40;;;;;;4943827;29;20048;-42
2021/11/20 20:19:01;;;;;;;0.85;0.50;;;20.20;54.60;;;;;;4948303;29;20051;-42
2021/11/20 20:21:27;;;;;;;2.80;0.45;;;20.20;54.60;;;;;;4948990;29;20119;-42
2021/11/20 20:23:55;;;;;;;2.65;0.63;;;20.20;54.70;;;;;;4948842;29;20035;-44
2021/11/20 20:26:25;;;;;;;0.95;0.50;;;20.20;54.60;;;;;;4948850;29;20051;-42
2021/11/20 20:28:56;;;;;;;2.38;0.60;;;20.30;54.50;;;;;;4948617;29;20037;-42
2021/11/20 20:31:23;;;;;;;1.35;0.50;;;20.30;54.50;;;;;;4948368;29;20032;-42
2021/11/20 20:33:49;;;;;;;;;;;20.30;55.10;;;;;;4931713;29;20032;-42
2021/11/20 20:36:15;;;;;;;2.35;0.60;;;20.30;54.70;;;;;;4948702;29;20085;-42
2021/11/20 20:38:41;;;;;;;0.82;0.50;;;20.40;54.60;;;;;;4948763;29;20228;-43
2021/11/20 20:41:08;;;;;;;2.10;0.45;;;20.40;54.60;;;;;;4948422;29;20090;-42
2021/11/20 20:43:36;;;;;;;0.60;0.40;;;20.40;54.40;;;;;;4948635;29;20024;-42
2021/11/20 20:46:02;;;;;;;1.05;0.50;;;20.40;54.30;;;;;;4948744;29;20069;-43
2021/11/20 20:48:28;;;;;;;0.88;0.43;;;20.50;54.20;;;;;;4948373;29;20024;-43
2021/11/20 20:50:54;;;;;;;0.50;0.40;;;20.50;54.40;;;;;;4948263;29;20028;-42
2021/11/20 20:53:20;;;;;;;0.98;0.40;;;20.50;54.50;;;;;;4948103;29;20051;-43
2021/11/20 20:55:46;;;;;;;0.75;0.40;;;20.50;54.30;;;;;;4948017;29;20096;-42
2021/11/20 20:58:12;;;;;;;1.05;0.60;;;20.60;54.40;;;;;;4948308;29;20031;-42
2021/11/20 21:00:38;;;;;;;0.70;0.45;;;20.60;54.30;;;;;;4948283;29;20091;-43
2021/11/20 21:03:05;;;;;;;1.20;0.50;;;20.60;54.30;;;;;;4947771;29;20079;-43
2021/11/20 21:05:31;;;;;;;1.55;0.57;;;20.60;54.30;;;;;;4948326;29;20032;-42
2021/11/20 21:07:59;;;;;;;0.77;0.50;;;20.60;54.20;;;;;;4948207;29;20099;-42
2021/11/20 21:10:26;;;;;;;2.25;0.60;;;20.60;54.00;;;;;;4948072;29;20027;-43
2021/11/20 21:12:54;;;;;;;0.53;0.50;;;20.60;54.10;;;;;;4947102;29;20031;-42
2021/11/20 21:15:20;;;;;;;0.52;0.35;;;20.70;54.20;;;;;;4948255;29;20042;-43
2021/11/20 21:17:48;;;;;;;1.42;0.38;;;20.70;54.00;;;;;;4947886;29;20023;-43
2021/11/20 21:22:59;;;;;;;0.88;0.40;;;20.70;53.80;;;;;;4947877;29;20060;-42
2021/11/20 21:25:28;;;;;;;0.43;0.40;;;20.70;53.80;;;;;;4947921;29;20035;-43
2021/11/20 21:27:58;;;;;;;0.50;0.30;;;20.70;53.80;;;;;;4947644;29;20046;-44
2021/11/20 21:30:25;;;;;;;0.60;0.40;;;20.60;53.90;;;;;;4947745;29;20034;-46
2021/11/20 21:32:51;;;;;;;0.70;0.52;;;20.60;53.90;;;;;;4947348;29;20047;-43
2021/11/20 21:35:18;;;;;;;2.05;0.40;;;20.70;53.90;;;;;;4947624;29;20050;-42
2021/11/20 21:37:44;;;;;;;3.47;0.60;;;20.70;53.70;;;;;;4947685;29;20035;-43
2021/11/20 21:40:11;;;;;;;1.17;0.50;;;20.70;53.80;;;;;;4947430;29;20040;-43
2021/11/20 21:42:37;;;;;;;0.50;0.43;;;20.70;54.30;;;;;;4947096;29;20110;-44
2021/11/20 21:45:04;;;;;;;0.85;0.40;;;20.70;53.70;;;;;;4947379;29;20042;-44
2021/11/20 21:47:30;;;;;;;0.68;0.40;;;20.70;53.70;;;;;;4932552;29;20485;-43
2021/11/20 21:49:56;;;;;;;0.57;0.40;;;20.70;53.50;;;;;;4944103;29;20043;-43
2021/11/20 21:52:23;;;;;;;1.17;0.40;;;20.70;53.70;;;;;;4946782;29;20032;-43
2021/11/20 21:54:51;;;;;;;0.40;0.40;;;20.70;53.60;;;;;;4946810;29;20043;-43
2021/11/20 21:57:17;;;;;;;1.10;0.60;;;20.70;53.70;;;;;;4947293;29;20028;-43
2021/11/20 21:59:44;;;;;;;0.82;0.40;;;20.70;53.70;;;;;;4947380;29;20036;-43
2021/11/20 22:02:11;;;;;;;0.90;0.50;;;20.70;53.70;;;;;;4946964;29;20056;-46
2021/11/20 22:04:39;;;;;;;1.02;0.57;;;20.70;53.70;;;;;;4946558;29;20028;-44
2021/11/20 22:07:06;;;;;;;0.52;0.47;;;20.70;53.60;;;;;;4957655;29;20119;-44
2021/11/20 22:09:32;;;;;;;2.27;0.50;;;20.70;53.50;;;;;;4950385;29;20103;-44
2021/11/20 22:11:58;;;;;;;0.65;0.40;;;20.70;53.40;;;;;;4954160;29;20270;-43
2021/11/20 22:14:24;;;;;;;0.60;0.40;;;20.70;53.30;;;;;;4950127;29;20048;-44
2021/11/20 22:16:51;;;;;;;0.77;0.40;;;20.70;53.40;;;;;;4962671;29;20034;-43
2021/11/20 22:19:17;;;;;;;0.50;0.38;;;20.70;53.50;;;;;;4936707;28;20059;-43
2021/11/20 22:21:44;;;;;;;0.60;0.35;;;20.70;53.60;;;;;;4956839;29;20030;-44
2021/11/20 22:24:10;;;;;;;0.63;0.50;;;20.70;53.60;;;;;;4953763;29;20114;-46
2021/11/20 22:26:36;;;;;;;1.58;0.50;;;20.80;53.70;;;;;;4946405;29;20046;-43
2021/11/20 22:29:02;;;;;;;2.03;0.63;;;20.80;53.70;;;;;;4945811;29;20027;-44
2021/11/20 22:31:28;;;;;;;2.55;0.45;;;20.80;53.80;;;;;;4945845;29;20035;-43
2021/11/20 22:33:54;;;;;;;4.13;0.50;;;20.80;53.80;;;;;;4945402;29;20035;-42
2021/11/20 22:36:21;;;;;;;1.58;0.80;;;20.80;53.70;;;;;;4945582;29;20083;-42
2021/11/20 22:38:47;;;;;;;2.97;0.52;;;20.70;53.60;;;;;;4945769;29;20063;-42
2021/11/20 22:41:13;;;;;;;1.60;0.50;;;20.70;53.60;;;;;;4944949;29;20024;-42
2021/11/20 22:43:39;;;;;;;1.73;0.52;;;20.70;53.60;;;;;;4945750;29;20039;-43
2021/11/20 22:46:05;;;;;;;0.70;0.50;;;20.70;53.80;;;;;;4945571;29;20027;-42
2021/11/20 22:48:31;;;;;;;0.85;0.50;;;20.80;53.80;;;;;;4945761;29;20095;-43
2021/11/20 22:50:57;;;;;;;0.65;0.50;;;20.80;53.90;;;;;;4945214;29;20032;-42
2021/11/20 22:53:23;;;;;;;0.98;0.55;;;20.80;53.90;;;;;;4945378;29;20040;-44
2021/11/20 22:55:49;;;;;;;0.95;0.40;;;20.80;53.90;;;;;;4928559;29;20032;-43
2021/11/20 22:58:16;;;;;;;1.05;0.45;;;20.80;53.90;;;;;;4926254;29;20024;-43
2021/11/20 23:00:48;;;;;;;10.75;0.80;;;20.80;53.90;;;;;;4926617;29;20024;-40
2021/11/20 23:03:15;;;;;;;2.42;0.57;;;20.80;53.80;;;;;;4939370;29;20023;-41
2021/11/20 23:05:43;;;;;;;2.15;0.60;;;20.80;54.00;;;;;;4945184;29;20033;-41
2021/11/20 23:08:10;;;;;;;0.82;0.60;;;20.80;54.10;;;;;;4945051;29;20063;-42
2021/11/20 23:10:36;;;;;;;1.58;0.47;;;20.80;54.00;;;;;;4945221;29;20055;-44
2021/11/20 23:13:03;;;;;;;1.92;0.60;;;20.80;54.10;;;;;;4945265;29;20043;-41
2021/11/20 23:15:29;;;;;;;0.77;0.50;;;20.80;54.10;;;;;;4927708;29;20051;-41
2021/11/20 23:17:55;;;;;;;1.70;0.80;;;20.80;53.70;;;;;;4944750;29;20679;-42
2021/11/20 23:20:21;;;;;;;0.38;0.30;;;20.80;53.60;;;;;;4944605;29;20028;-41
2021/11/20 23:22:47;;;;;;;1.40;0.50;;;20.80;53.80;;;;;;4945016;29;20027;-41
2021/11/20 23:25:14;;;;;;;0.80;0.40;;;20.80;53.90;;;;;;4945106;29;20051;-40
2021/11/20 23:27:40;;;;;;;0.70;0.50;;;20.80;54.00;;;;;;4944857;29;20120;-41
2021/11/20 23:30:07;;;;;;;1.65;0.52;;;20.80;53.90;;;;;;4945303;29;20040;-41
2021/11/20 23:32:34;;;;;;;0.60;0.50;;;20.80;53.90;;;;;;4944862;29;20035;-41
2021/11/20 23:35:02;;;;;;;0.65;0.50;;;20.80;53.60;;;;;;4946796;29;20052;-42
2021/11/20 23:37:28;;;;;;;2.05;0.60;;;20.80;53.50;;;;;;4950759;29;20035;-41
2021/11/20 23:39:54;;;;;;;0.85;0.45;;;20.70;53.50;;;;;;4944843;29;20036;-41
2021/11/20 23:42:20;;;;;;;1.27;0.57;;;20.70;53.50;;;;;;4944520;29;20050;-42
2021/11/20 23:44:47;;;;;;;0.57;0.50;;;20.70;53.80;;;;;;4944851;29;20838;-41
2021/11/20 23:47:16;;;;;;;0.43;0.30;;;20.80;53.90;;;;;;4944402;29;20032;-41
2021/11/20 23:49:42;;;;;;;0.50;0.40;;;20.80;54.10;;;;;;4944337;29;20040;-42
2021/11/20 23:52:11;;;;;;;0.70;0.50;;;20.80;54.10;;;;;;4944162;29;20024;-41
2021/11/20 23:54:37;;;;;;;1.73;0.50;;;20.80;54.10;;;;;;4944569;29;20070;-41
2021/11/20 23:57:03;;;;;;;0.77;0.50;;;20.80;54.20;;;;;;4944304;29;20028;-42
2021/11/20 23:59:29;;;;;;;0.77;0.50;;;20.80;54.20;;;;;;4938810;29;20040;-42
